createdAt,value
2023-01-01T00:02:36.952Z,4.27
2023-01-01T00:07:40.690Z,4.60
2023-01-01T00:12:46.119Z,4.37
2023-01-01T00:17:51.647Z,3.90
2023-01-01T00:22:57.168Z,3.37
2023-01-01T00:28:03.237Z,4.43
2023-01-01T00:33:08.749Z,3.40
2023-01-01T00:38:14.748Z,4.10
2023-01-01T00:43:20.259Z,3.30
2023-01-01T00:48:25.800Z,3.03
2023-01-01T00:53:31.991Z,3.20
2023-01-01T00:58:37.455Z,3.80
2023-01-01T01:03:42.968Z,3.27
2023-01-01T01:08:49.089Z,3.80
2023-01-01T01:13:57.445Z,3.43
2023-01-01T01:19:05.431Z,3.73
2023-01-01T01:24:11.519Z,3.80
2023-01-01T01:29:17.053Z,3.93
2023-01-01T01:34:27.556Z,3.80
2023-01-01T01:39:29.801Z,3.43
2023-01-01T01:44:53.398Z,4.00
2023-01-01T01:50:10.688Z,4.03
2023-01-01T01:55:16.425Z,3.90
2023-01-01T02:00:21.876Z,4.17
2023-01-01T02:05:28.297Z,4.20
2023-01-01T02:10:34.030Z,3.37
2023-01-01T02:15:42.525Z,4.43
2023-01-01T02:20:56.813Z,4.70
2023-01-01T02:26:13.839Z,3.73
2023-01-01T02:31:25.129Z,4.40
2023-01-01T02:36:33.457Z,3.50
2023-01-01T02:41:41.956Z,4.10
2023-01-01T02:46:47.336Z,4.13
2023-01-01T02:52:08.285Z,4.80
2023-01-01T02:57:39.314Z,5.67
2023-01-01T03:03:04.185Z,5.83
2023-01-01T03:08:15.723Z,5.83
2023-01-01T03:13:24.159Z,6.20
2023-01-01T03:18:38.494Z,5.40
2023-01-01T03:23:49.929Z,5.57
2023-01-01T03:28:57.593Z,5.20
2023-01-01T03:34:06.103Z,4.30
2023-01-01T03:39:17.375Z,4.37
2023-01-01T03:44:31.840Z,3.63
2023-01-01T03:49:37.857Z,4.40
2023-01-01T03:55:06.034Z,4.10
2023-01-01T04:00:20.563Z,4.20
2023-01-01T04:05:27.771Z,4.83
2023-01-01T04:10:36.317Z,3.97
2023-01-01T04:15:41.908Z,5.60
2023-01-01T04:20:47.313Z,4.17
2023-01-01T04:25:52.769Z,3.77
2023-01-01T04:31:02.453Z,3.90
2023-01-01T04:36:10.595Z,4.23
2023-01-01T04:41:16.048Z,3.97
2023-01-01T04:46:23.657Z,3.50
2023-01-01T04:51:29.176Z,4.10
2023-01-01T04:56:34.732Z,3.70
2023-01-01T05:01:40.390Z,3.70
2023-01-01T05:06:46.128Z,3.13
2023-01-01T05:11:51.574Z,3.53
2023-01-01T05:16:57.081Z,3.47
2023-01-01T05:22:08.538Z,3.90
2023-01-01T05:27:09.916Z,3.83
2023-01-01T05:37:19.929Z,3.70
2023-01-01T05:42:25.458Z,4.57
2023-01-01T05:47:30.900Z,3.50
2023-01-01T05:52:37.972Z,3.43
2023-01-01T05:57:43.622Z,3.77
2023-01-01T06:02:50.909Z,3.60
2023-01-01T06:07:56.360Z,3.00
2023-01-01T06:13:02.009Z,3.70
2023-01-01T06:18:07.617Z,3.73
2023-01-01T06:23:13.088Z,3.37
2023-01-01T06:28:18.547Z,3.20
2023-01-01T06:33:23.937Z,3.30
2023-01-01T06:38:30.937Z,3.23
2023-01-01T06:43:37.411Z,3.93
2023-01-01T06:48:43.165Z,3.70
2023-01-01T06:53:50.001Z,3.10
2023-01-01T06:58:55.442Z,3.10
2023-01-01T07:04:06.451Z,3.70
2023-01-01T07:09:11.832Z,3.60
2023-01-01T07:14:17.243Z,4.10
2023-01-01T07:19:22.840Z,3.50
2023-01-01T07:24:28.296Z,2.73
2023-01-01T07:29:33.680Z,2.70
2023-01-01T07:34:39.636Z,2.40
2023-01-01T07:39:45.095Z,3.47
2023-01-01T07:44:50.476Z,3.20
2023-01-01T07:49:56.122Z,3.07
2023-01-01T07:55:01.634Z,2.80
2023-01-01T08:00:08.256Z,2.80
2023-01-01T08:05:16.942Z,2.50
2023-01-01T08:10:23.045Z,3.53
2023-01-01T08:15:28.871Z,3.10
2023-01-01T08:20:35.399Z,3.23
2023-01-01T08:25:40.933Z,3.00
2023-01-01T08:30:46.341Z,2.50
2023-01-01T08:35:54.340Z,2.83
2023-01-01T08:40:59.181Z,2.30
2023-01-01T08:46:04.740Z,2.87
2023-01-01T08:51:11.480Z,3.23
2023-01-01T08:56:17.084Z,2.43
2023-01-01T09:01:22.641Z,3.03
2023-01-01T09:06:28.426Z,2.40
2023-01-01T09:11:33.965Z,2.83
2023-01-01T09:16:44.279Z,2.90
2023-01-01T09:21:47.301Z,2.70
2023-01-01T09:26:53.004Z,2.47
2023-01-01T09:31:58.503Z,2.67
2023-01-01T09:37:03.945Z,2.83
2023-01-01T09:42:32.455Z,2.77
2023-01-01T09:47:44.237Z,2.80
2023-01-01T09:52:59.145Z,3.00
2023-01-01T09:58:04.722Z,2.77
2023-01-01T10:03:13.171Z,2.23
2023-01-01T10:08:30.665Z,3.10
2023-01-01T10:13:42.068Z,2.77
2023-01-01T10:18:50.185Z,3.57
2023-01-01T10:24:01.362Z,2.70
2023-01-01T10:29:15.952Z,2.50
2023-01-01T10:34:26.734Z,3.37
2023-01-01T10:39:32.244Z,2.73
2023-01-01T10:44:38.107Z,3.67
2023-01-01T10:49:59.154Z,3.00
2023-01-01T10:55:06.757Z,3.00
2023-01-01T11:00:27.426Z,2.40
2023-01-01T11:05:33.106Z,2.90
2023-01-01T11:10:38.561Z,3.17
2023-01-01T11:15:44.592Z,3.00
2023-01-01T11:21:00.607Z,9.30
2023-01-01T11:26:20.677Z,6.73
2023-01-01T11:31:29.517Z,6.83
2023-01-01T11:36:36.549Z,5.57
2023-01-01T11:41:48.099Z,3.17
2023-01-01T11:46:53.807Z,3.40
2023-01-01T11:52:00.447Z,2.87
2023-01-01T11:57:14.625Z,3.10
2023-01-01T12:02:29.189Z,3.57
2023-01-01T12:07:37.566Z,3.57
2023-01-01T12:12:48.955Z,3.27
2023-01-01T12:18:03.581Z,2.57
2023-01-01T12:23:11.975Z,3.10
2023-01-01T12:28:23.119Z,3.53
2023-01-01T12:33:37.225Z,3.20
2023-01-01T12:38:54.704Z,3.33
2023-01-01T12:44:09.202Z,3.00
2023-01-01T12:49:32.550Z,2.83
2023-01-01T12:54:52.712Z,3.37
2023-01-01T13:00:01.337Z,3.03
2023-01-01T13:05:10.257Z,3.00
2023-01-01T13:10:30.410Z,3.10
2023-01-01T13:15:44.996Z,3.80
2023-01-01T13:20:59.443Z,2.13
2023-01-01T13:26:23.223Z,2.30
2023-01-01T13:31:44.144Z,2.40
2023-01-01T13:36:49.635Z,2.23
2023-01-01T13:41:55.103Z,2.40
2023-01-01T13:47:03.574Z,2.30
2023-01-01T13:52:34.800Z,2.10
2023-01-01T13:58:02.980Z,2.83
2023-01-01T14:03:11.633Z,2.30
2023-01-01T14:08:34.660Z,2.00
2023-01-01T14:13:43.082Z,2.30
2023-01-01T14:18:51.315Z,2.30
2023-01-01T14:23:59.710Z,2.33
2023-01-01T14:29:10.359Z,2.00
2023-01-01T14:34:31.144Z,2.77
2023-01-01T14:39:38.061Z,1.93
2023-01-01T14:44:46.175Z,1.87
2023-01-01T14:49:53.697Z,2.03
2023-01-01T14:55:01.677Z,1.83
2023-01-01T15:00:25.348Z,1.80
2023-01-01T15:05:35.880Z,1.50
2023-01-01T15:10:41.186Z,1.50
2023-01-01T15:15:49.314Z,1.30
2023-01-01T15:20:56.741Z,1.60
2023-01-01T15:26:02.965Z,1.60
2023-01-01T15:31:08.720Z,1.40
2023-01-01T15:36:15.418Z,1.57
2023-01-01T15:41:45.398Z,1.57
2023-01-01T15:46:54.909Z,2.10
2023-01-01T15:52:06.596Z,1.80
2023-01-01T15:57:24.311Z,1.80
2023-01-01T16:02:37.235Z,1.60
2023-01-01T16:07:43.272Z,1.50
2023-01-01T16:12:48.653Z,1.47
2023-01-01T16:17:55.250Z,1.30
2023-01-01T16:23:00.731Z,1.20
2023-01-01T16:28:06.924Z,1.03
2023-01-01T16:33:18.337Z,1.20
2023-01-01T16:38:23.807Z,1.20
2023-01-01T16:43:29.197Z,1.27
2023-01-01T16:48:35.174Z,0.90
2023-01-01T16:53:41.028Z,0.97
2023-01-01T16:58:50.021Z,1.10
2023-01-01T17:03:55.478Z,0.87
2023-01-01T17:09:01.766Z,0.60
2023-01-01T17:14:07.631Z,0.90
2023-01-01T17:19:16.193Z,1.10
2023-01-01T17:24:22.331Z,0.70
2023-01-01T17:29:27.775Z,0.90
2023-01-01T17:34:33.249Z,0.80
2023-01-01T17:39:38.703Z,1.10
2023-01-01T17:44:45.297Z,1.20
2023-01-01T17:49:50.946Z,0.80
2023-01-01T17:54:56.474Z,0.77
2023-01-01T18:00:03.378Z,1.40
2023-01-01T18:05:10.632Z,1.07
2023-01-01T18:10:16.193Z,1.10
2023-01-01T18:15:22.789Z,1.40
2023-01-01T18:20:28.357Z,1.77
2023-01-01T18:25:33.821Z,1.50
2023-01-01T18:30:39.532Z,1.37
2023-01-01T18:35:45.048Z,1.47
2023-01-01T18:40:53.492Z,2.07
2023-01-01T18:45:59.095Z,2.13
2023-01-01T18:51:13.270Z,1.20
2023-01-01T18:56:18.699Z,1.60
2023-01-01T19:01:25.610Z,1.80
2023-01-01T19:06:34.057Z,1.10
2023-01-01T19:11:40.008Z,1.27
2023-01-01T19:16:47.388Z,1.40
2023-01-01T19:21:55.978Z,1.40
2023-01-01T19:27:13.516Z,1.33
2023-01-01T19:32:20.946Z,1.20
2023-01-01T19:37:26.489Z,1.20
2023-01-01T19:42:31.950Z,1.70
2023-01-01T19:47:38.478Z,1.20
2023-01-01T19:52:45.368Z,1.37
2023-01-01T19:57:51.770Z,1.37
2023-01-01T20:03:25.909Z,1.97
2023-01-01T20:08:08.937Z,1.50
2023-01-01T20:13:16.272Z,1.60
2023-01-01T20:18:22.102Z,1.70
2023-01-01T20:23:28.234Z,1.47
2023-01-01T20:28:54.291Z,2.13
2023-01-01T20:34:00.627Z,1.30
2023-01-01T20:39:06.011Z,1.40
2023-01-01T20:44:11.430Z,1.50
2023-01-01T20:49:18.567Z,1.47
2023-01-01T20:54:24.434Z,1.40
2023-01-01T20:59:38.591Z,1.70
2023-01-01T21:04:39.664Z,1.17
2023-01-01T21:09:45.461Z,1.43
2023-01-01T21:14:52.292Z,1.00
2023-01-01T21:19:59.427Z,1.20
2023-01-01T21:25:40.840Z,1.10
2023-01-01T21:30:15.344Z,1.70
2023-01-01T21:35:35.807Z,0.90
2023-01-01T21:40:55.391Z,1.37
2023-01-01T21:46:09.692Z,1.20
2023-01-01T21:51:26.798Z,1.23
2023-01-01T21:56:38.172Z,1.40
2023-01-01T22:01:45.920Z,1.80
2023-01-01T22:06:54.770Z,1.50
2023-01-01T22:12:18.496Z,1.43
2023-01-01T22:17:34.973Z,1.40
2023-01-01T22:22:36.992Z,1.57
2023-01-01T22:27:42.551Z,1.40
2023-01-01T22:32:55.163Z,1.70
2023-01-01T22:38:06.265Z,1.40
2023-01-01T22:43:14.715Z,1.73
2023-01-01T22:48:36.274Z,1.70
2023-01-01T22:53:42.403Z,1.67
2023-01-01T22:58:53.074Z,1.77
2023-01-01T23:03:55.243Z,1.70
2023-01-01T23:09:04.563Z,1.83
2023-01-01T23:14:28.617Z,1.60
2023-01-01T23:19:34.601Z,2.30
2023-01-01T23:24:40.205Z,2.50
2023-01-01T23:29:48.341Z,2.20
2023-01-01T23:34:53.977Z,2.47
2023-01-01T23:39:59.518Z,2.40
2023-01-01T23:45:05.669Z,3.03
2023-01-01T23:50:11.572Z,2.37
2023-01-01T23:55:18.468Z,2.67
